Jim Kilabuk — VCKW — position and weather

sailwx.info

Track history (hours):
 
Tides and Currents Weather Stations Pressure Air Temp Water Temp Dewpoint Dewpoint Depression Visibility Wind Speed Wind Dir Waves Ship Positions

Jim Kilabuk

Last reported at 2015-May-30 02:31 UTC. Time now 2015-May-30 06:36 UTC.
Position N 49°10' W 123°56'.

Length 62 m; draft 4.2 m.

Type: Tug. MMSI: 316232000.

Date/timePositionNaut miles runAvg speedWind from/ knotsBaromVisibWave heightAir tempDewpointWater temp
2015-May-30 02:31N 49°10' W 123°56'0 0.0
2015-May-30 01:33N 49°10' W 123°56'0 0.0
2015-May-30 00:34N 49°10' W 123°56'0 0.0
2015-May-29 23:33N 49°10' W 123°56'0 0.0
2015-May-29 22:33N 49°10' W 123°56'0 0.0
2015-May-29 21:33N 49°10' W 123°56'0 0.0
2015-May-29 20:34N 49°10' W 123°56'0 0.0
2015-May-29 19:34N 49°10' W 123°56'3 0.7
2015-May-29 14:19N 49°12' W 123°52'5 5.3
2015-May-29 13:24N 49°12' W 123°45'5 5.4
2015-May-29 12:32N 49°10' W 123°38'5 5.0
2015-May-29 11:26N 49°06' W 123°32'5 4.8
2015-May-29 10:25N 49°02' W 123°27'4 5.1
2015-May-29 09:33N 48°60' W 123°22'6 4.9
2015-May-29 08:20N 48°56' W 123°15'4 4.7
2015-May-29 07:33N 48°53' W 123°11'5 5.3
2015-May-29 06:31N 48°50' W 123°05'4 4.1
2015-May-29 05:34N 48°46' W 123°01'6 6.4
2015-May-29 04:34N 48°43' W 123°10'5 5.2
2015-May-29 03:34N 48°39' W 123°14'6 6.3
2015-May-29 02:33N 48°33' W 123°12'6 6.3
2015-May-29 01:34N 48°27' W 123°10'6 6.1
2015-May-29 00:33N 48°22' W 123°16'6 6.3
2015-May-28 23:33N 48°24' W 123°25'2 1.6
2015-May-28 22:33N 48°26' W 123°26'0 0.0
2015-May-28 21:33N 48°26' W 123°26'0 0.0
2015-May-28 20:30N 48°26' W 123°26'6 6.8
2015-May-28 19:34N 48°20' W 123°25'1110.9
2015-May-28 18:33N 48°13' W 123°38'1211.8
2015-May-28 17:34N 48°13' W 123°55'1211.9
2015-May-28 16:33N 48°18' W 124°12'1111.2
2015-May-28 15:33N 48°23' W 124°27'1110.6
2015-May-28 14:33N 48°27' W 124°42'1110.7
2015-May-28 13:33N 48°20' W 124°54'1111.5
2015-May-28 12:33N 48°09' W 124°59'1211.5
2015-May-28 11:30N 47°57' W 124°59'2311.3
2015-May-28 09:26N 47°34' W 125°02'1011.4
2015-May-28 08:33N 47°24' W 125°02'1111.4
2015-May-28 07:33N 47°13' W 125°02'1111.2
2015-May-28 06:33N 47°01' W 125°01'1510.9
2015-May-28 05:12N 46°47' W 125°01'710.9
2015-May-28 04:32N 46°39' W 125°01'1111.0
2015-May-28 03:34N 46°29' W 125°02'1110.7
2015-May-28 02:33N 46°18' W 125°02'1010.3
2015-May-28 01:34N 46°08' W 125°02'1010.2
2015-May-28 00:33N 45°57' W 125°02'1010.2
2015-May-27 23:33N 45°47' W 125°03'1110.4
2015-May-27 22:32N 45°37' W 125°03'1010.5
2015-May-27 21:33N 45°26' W 125°04'1110.5
2015-May-27 20:31N 45°15' W 125°04'1010.7
2015-May-27 19:33N 45°05' W 125°04'1110.7
2015-May-27 18:34N 44°54' W 125°04'1110.6
2015-May-27 17:31N 44°43' W 125°04'1010.4
2015-May-27 16:33N 44°33' W 125°03'372 9.4
2015-May-26 01:07N 38°25' W 123°58'710.0
2015-May-26 00:26N 38°19' W 123°54'910.1
2015-May-25 23:33N 38°11' W 123°48'1110.7
2015-May-25 22:34N 38°01' W 123°42'1010.4
2015-May-25 21:33N 37°52' W 123°36'1010.3
2015-May-25 20:33N 37°43' W 123°31'1110.6
2015-May-25 19:32N 37°33' W 123°25'1010.5
2015-May-25 18:34N 37°24' W 123°19'1010.5
2015-May-25 17:34N 37°15' W 123°13'1410.4
2015-May-25 16:11N 37°02' W 123°05'810.8
2015-May-25 15:26N 36°55' W 122°60'1010.5
2015-May-25 14:31N 36°46' W 122°54'1010.2
2015-May-25 13:31N 36°37' W 122°48'1010.0
2015-May-25 12:29N 36°28' W 122°42'1210.0
2015-May-25 11:16N 36°17' W 122°35'710.1
2015-May-25 10:34N 36°11' W 122°31'1010.3
2015-May-25 09:34N 36°02' W 122°25'10 9.8
2015-May-25 08:34N 35°53' W 122°19'10 9.8
2015-May-25 07:34N 35°45' W 122°13'10 9.9
2015-May-25 06:33N 35°36' W 122°07'9 9.5
2015-May-25 05:33N 35°28' W 122°02'9 9.5
2015-May-25 04:34N 35°19' W 121°56'1010.0
2015-May-25 03:34N 35°11' W 121°50'1010.0
2015-May-25 02:32N 35°02' W 121°44'10 9.9
2015-May-25 01:33N 34°53' W 121°39'194 9.7
2015-May-24 05:28N 32°15' W 119°24'  
Track history (hours):
 
Tides and Currents Weather Stations Pressure Air Temp Water Temp Dewpoint Dewpoint Depression Visibility Wind Speed Wind Dir Waves Ship Positions

Jim Kilabuk

Last reported at 2015-May-30 02:31 UTC. Time now 2015-May-30 06:36 UTC.
Position N 49°10' W 123°56'.

Length 62 m; draft 4.2 m.

Type: Tug. MMSI: 316232000.

Date/timePositionNaut miles runAvg speedWind from/ knotsBaromVisibWave heightAir tempDewpointWater temp
2015-May-30 02:31N 49°10' W 123°56'0 0.0
2015-May-30 01:33N 49°10' W 123°56'0 0.0
2015-May-30 00:34N 49°10' W 123°56'0 0.0
2015-May-29 23:33N 49°10' W 123°56'0 0.0
2015-May-29 22:33N 49°10' W 123°56'0 0.0
2015-May-29 21:33N 49°10' W 123°56'0 0.0
2015-May-29 20:34N 49°10' W 123°56'0 0.0
2015-May-29 19:34N 49°10' W 123°56'3 0.7
2015-May-29 14:19N 49°12' W 123°52'5 5.3
2015-May-29 13:24N 49°12' W 123°45'5 5.4
2015-May-29 12:32N 49°10' W 123°38'5 5.0
2015-May-29 11:26N 49°06' W 123°32'5 4.8
2015-May-29 10:25N 49°02' W 123°27'4 5.1
2015-May-29 09:33N 48°60' W 123°22'6 4.9
2015-May-29 08:20N 48°56' W 123°15'4 4.7
2015-May-29 07:33N 48°53' W 123°11'5 5.3
2015-May-29 06:31N 48°50' W 123°05'4 4.1
2015-May-29 05:34N 48°46' W 123°01'6 6.4
2015-May-29 04:34N 48°43' W 123°10'5 5.2
2015-May-29 03:34N 48°39' W 123°14'6 6.3
2015-May-29 02:33N 48°33' W 123°12'6 6.3
2015-May-29 01:34N 48°27' W 123°10'6 6.1
2015-May-29 00:33N 48°22' W 123°16'6 6.3
2015-May-28 23:33N 48°24' W 123°25'2 1.6
2015-May-28 22:33N 48°26' W 123°26'0 0.0
2015-May-28 21:33N 48°26' W 123°26'0 0.0
2015-May-28 20:30N 48°26' W 123°26'6 6.8
2015-May-28 19:34N 48°20' W 123°25'1110.9
2015-May-28 18:33N 48°13' W 123°38'1211.8
2015-May-28 17:34N 48°13' W 123°55'1211.9
2015-May-28 16:33N 48°18' W 124°12'1111.2
2015-May-28 15:33N 48°23' W 124°27'1110.6
2015-May-28 14:33N 48°27' W 124°42'1110.7
2015-May-28 13:33N 48°20' W 124°54'1111.5
2015-May-28 12:33N 48°09' W 124°59'1211.5
2015-May-28 11:30N 47°57' W 124°59'2311.3
2015-May-28 09:26N 47°34' W 125°02'1011.4
2015-May-28 08:33N 47°24' W 125°02'1111.4
2015-May-28 07:33N 47°13' W 125°02'1111.2
2015-May-28 06:33N 47°01' W 125°01'1510.9
2015-May-28 05:12N 46°47' W 125°01'710.9
2015-May-28 04:32N 46°39' W 125°01'1111.0
2015-May-28 03:34N 46°29' W 125°02'1110.7
2015-May-28 02:33N 46°18' W 125°02'1010.3
2015-May-28 01:34N 46°08' W 125°02'1010.2
2015-May-28 00:33N 45°57' W 125°02'1010.2
2015-May-27 23:33N 45°47' W 125°03'1110.4
2015-May-27 22:32N 45°37' W 125°03'1010.5
2015-May-27 21:33N 45°26' W 125°04'1110.5
2015-May-27 20:31N 45°15' W 125°04'1010.7
2015-May-27 19:33N 45°05' W 125°04'1110.7
2015-May-27 18:34N 44°54' W 125°04'1110.6
2015-May-27 17:31N 44°43' W 125°04'1010.4
2015-May-27 16:33N 44°33' W 125°03'372 9.4
2015-May-26 01:07N 38°25' W 123°58'710.0
2015-May-26 00:26N 38°19' W 123°54'910.1
2015-May-25 23:33N 38°11' W 123°48'1110.7
2015-May-25 22:34N 38°01' W 123°42'1010.4
2015-May-25 21:33N 37°52' W 123°36'1010.3
2015-May-25 20:33N 37°43' W 123°31'1110.6
2015-May-25 19:32N 37°33' W 123°25'1010.5
2015-May-25 18:34N 37°24' W 123°19'1010.5
2015-May-25 17:34N 37°15' W 123°13'1410.4
2015-May-25 16:11N 37°02' W 123°05'810.8
2015-May-25 15:26N 36°55' W 122°60'1010.5
2015-May-25 14:31N 36°46' W 122°54'1010.2
2015-May-25 13:31N 36°37' W 122°48'1010.0
2015-May-25 12:29N 36°28' W 122°42'1210.0
2015-May-25 11:16N 36°17' W 122°35'710.1
2015-May-25 10:34N 36°11' W 122°31'1010.3
2015-May-25 09:34N 36°02' W 122°25'10 9.8
2015-May-25 08:34N 35°53' W 122°19'10 9.8
2015-May-25 07:34N 35°45' W 122°13'10 9.9
2015-May-25 06:33N 35°36' W 122°07'9 9.5
2015-May-25 05:33N 35°28' W 122°02'9 9.5
2015-May-25 04:34N 35°19' W 121°56'1010.0
2015-May-25 03:34N 35°11' W 121°50'1010.0
2015-May-25 02:32N 35°02' W 121°44'10 9.9
2015-May-25 01:33N 34°53' W 121°39'194 9.7
2015-May-24 05:28N 32°15' W 119°24'  

Dump ship's entire track history